createdAt,value
2019-04-20T00:58:35.986Z,93.40
2019-04-20T01:04:52.336Z,92.50
2019-04-20T18:06:27.550Z,99.90
2019-04-20T18:09:05.292Z,99.90
2019-04-20T18:11:33.008Z,99.90
2019-04-20T18:14:28.565Z,98.10
2019-04-20T18:17:10.174Z,99.90
2019-04-20T18:22:16.396Z,99.90
2019-04-20T18:25:16.305Z,99.90
2019-04-20T18:30:27.407Z,99.90
2019-04-20T18:32:53.486Z,99.90
2019-04-20T18:43:25.582Z,99.90
2019-04-20T18:46:18.018Z,99.90
2019-04-20T18:49:03.544Z,99.90
2019-04-20T18:51:21.767Z,99.90
2019-04-20T18:54:05.619Z,99.90
2019-04-20T18:56:45.921Z,99.90
2019-04-20T18:59:23.425Z,99.90
2019-04-20T19:02:01.185Z,99.90
2019-04-20T19:04:42.240Z,99.90
2019-04-20T19:07:21.787Z,99.90
2019-04-20T19:10:12.962Z,99.90
2019-04-20T19:12:49.712Z,99.90
2019-04-20T19:15:56.064Z,99.90
2019-04-20T19:21:22.359Z,99.90
2019-04-20T19:24:07.405Z,99.90
2019-04-20T19:29:26.444Z,97.50
2019-04-20T19:32:17.929Z,99.90
2019-04-20T19:34:45.296Z,99.90
2019-04-20T19:40:04.593Z,99.90
2019-04-20T19:42:45.505Z,99.90
2019-04-20T19:45:36.132Z,99.90
2019-04-20T19:48:09.533Z,99.90
2019-04-20T19:53:32.441Z,99.90
2019-04-20T19:55:59.035Z,99.90
2019-04-20T19:58:37.896Z,99.90
2019-04-20T20:03:43.761Z,99.00
2019-04-20T20:06:30.726Z,99.90
2019-04-20T20:14:30.108Z,99.90
2019-04-20T20:17:19.638Z,99.90
2019-04-20T20:22:25.421Z,99.90
2019-04-20T20:24:54.799Z,99.90
2019-04-20T20:33:04.814Z,99.90
2019-04-20T20:38:18.108Z,99.90
2019-04-20T20:51:34.502Z,99.90
2019-04-20T20:53:56.507Z,99.90
2019-04-20T20:56:35.633Z,99.90
2019-04-20T21:01:54.051Z,99.90
2019-04-20T21:04:27.626Z,99.90
2019-04-20T21:07:04.935Z,99.90
2019-04-20T21:09:43.160Z,99.90
2019-04-20T21:20:33.122Z,99.90
2019-04-20T21:23:07.251Z,99.90
2019-04-20T21:25:37.765Z,99.90
2019-04-20T21:28:15.881Z,99.90
2019-04-20T21:30:53.684Z,99.90
2019-04-20T21:33:36.898Z,99.90
2019-04-20T21:36:14.525Z,97.90
2019-04-20T21:38:53.789Z,99.90
2019-04-20T21:41:33.693Z,99.90
2019-04-20T21:44:20.774Z,99.90
2019-04-20T21:46:54.485Z,99.90
2019-04-20T21:49:42.333Z,99.90
2019-04-20T21:52:21.281Z,99.90
2019-04-20T21:57:40.331Z,99.90
2019-04-20T22:00:24.956Z,99.90
2019-04-20T22:03:03.916Z,99.90
2019-04-20T22:05:38.034Z,99.90
2019-04-20T22:10:53.488Z,97.80
2019-04-20T22:16:10.990Z,98.90
2019-04-20T22:18:59.171Z,99.80
2019-04-20T22:21:48.276Z,96.10
2019-04-20T22:24:21.630Z,95.80
2019-04-20T22:27:04.589Z,98.90
2019-04-20T22:29:34.259Z,99.00
2019-04-20T22:34:57.171Z,98.10
2019-04-20T22:37:35.003Z,98.70
2019-04-20T22:48:08.208Z,97.40
2019-04-20T22:56:12.327Z,97.70
2019-04-20T22:58:43.491Z,97.60
2019-04-20T23:01:28.953Z,98.70
2019-04-20T23:03:52.700Z,98.60
2019-04-20T23:06:35.456Z,91.30
2019-04-20T23:09:11.625Z,90.70
2019-04-20T23:12:02.723Z,90.80
2019-04-20T23:14:34.210Z,90.80
2019-04-20T23:17:12.453Z,90.70
2019-04-20T23:19:56.138Z,90.60
2019-04-20T23:22:36.964Z,90.30
2019-04-20T23:25:15.312Z,90.50
2019-04-20T23:28:00.501Z,90.10
2019-04-20T23:30:39.415Z,89.30
2019-04-20T23:33:20.053Z,89.30
2019-04-20T23:36:04.384Z,89.10
2019-04-20T23:38:49.049Z,88.60
2019-04-20T23:41:25.966Z,88.00
2019-04-20T23:44:33.616Z,86.40
2019-04-20T23:47:40.794Z,86.40
2019-04-20T23:50:36.873Z,86.70
2019-04-20T23:53:14.141Z,86.50
2019-04-20T23:55:37.499Z,85.80
2019-04-20T23:58:16.089Z,85.90
